Time;durP1;ratioP1;P1;durP2;ratioP2;P2;SDS_P1;SDS_P2;PMS_P1;PMS_P2;Temp;Humidity;BMP_temperature;BMP_pressure;BME280_temperature;BME280_humidity;BME280_pressure;Samples;Min_cycle;Max_cycle;Signal;HPM_P1;HPM_P2
2021/04/09 00:01:43;;;;;;;15.45;10.35;;;5.10;99.90;;;;;;5047775;28;20040;-90
2021/04/09 00:04:10;;;;;;;15.10;10.00;;;5.00;99.90;;;;;;5043553;28;20365;-91
2021/04/09 00:06:35;;;;;;;15.82;10.68;;;5.00;99.90;;;;;;5041268;28;20229;-90
2021/04/09 00:09:03;;;;;;;16.23;11.40;;;5.00;99.90;;;;;;5044755;28;20029;-90
2021/04/09 00:11:29;;;;;;;15.05;9.95;;;5.00;99.90;;;;;;5042612;28;20032;-90
2021/04/09 00:13:54;;;;;;;15.55;11.20;;;5.00;99.90;;;;;;5044391;28;20385;-90
2021/04/09 00:16:21;;;;;;;15.02;10.80;;;5.00;99.90;;;;;;5052205;28;20021;-91
2021/04/09 00:18:50;;;;;;;13.63;9.93;;;4.90;99.90;;;;;;5033851;28;20064;-91
2021/04/09 00:21:16;;;;;;;14.70;10.52;;;4.90;99.90;;;;;;5030811;28;20489;-91
2021/04/09 00:23:42;;;;;;;14.57;9.57;;;4.90;99.90;;;;;;5050123;28;20013;-92
2021/04/09 00:26:07;;;;;;;15.57;10.48;;;4.90;99.90;;;;;;5049200;28;20052;-91
2021/04/09 00:28:33;;;;;;;17.25;11.45;;;4.80;99.90;;;;;;5046509;28;20028;-91
2021/04/09 00:30:59;;;;;;;14.02;10.18;;;4.80;99.90;;;;;;5047623;28;20017;-91
2021/04/09 00:33:28;;;;;;;14.57;11.13;;;4.80;99.90;;;;;;5046856;28;20389;-90
2021/04/09 00:35:54;;;;;;;15.10;10.07;;;4.80;99.90;;;;;;5035337;28;20025;-90
2021/04/09 00:38:20;;;;;;;17.70;12.05;;;4.80;99.90;;;;;;5022110;28;20060;-90
2021/04/09 00:40:45;;;;;;;14.32;10.50;;;4.70;99.90;;;;;;5047134;28;20032;-90
2021/04/09 00:43:11;;;;;;;15.70;10.18;;;4.70;99.90;;;;;;5044112;28;20393;-89
2021/04/09 00:45:38;;;;;;;17.67;11.30;;;4.70;99.90;;;;;;5044474;28;20090;-91
2021/04/09 00:48:04;;;;;;;17.67;12.68;;;4.70;99.90;;;;;;5048213;28;20029;-91
2021/04/09 00:50:31;;;;;;;15.88;11.13;;;4.70;99.90;;;;;;5045389;28;20029;-90
2021/04/09 00:52:59;;;;;;;17.65;11.27;;;4.70;99.90;;;;;;5048468;28;20388;-91
2021/04/09 00:55:29;;;;;;;15.32;10.15;;;4.70;99.90;;;;;;5047350;28;20079;-89
2021/04/09 00:57:58;;;;;;;13.98;10.45;;;4.70;99.90;;;;;;5043450;28;20477;-91
2021/04/09 01:00:25;;;;;;;16.27;10.65;;;4.70;99.90;;;;;;5043816;28;20105;-91
2021/04/09 01:02:54;;;;;;;16.15;11.02;;;4.70;99.90;;;;;;5038929;28;20029;-90
2021/04/09 01:05:21;;;;;;;15.70;10.18;;;4.70;99.90;;;;;;5029249;28;20044;-90
2021/04/09 01:07:48;;;;;;;14.65;10.25;;;4.70;99.90;;;;;;5039084;28;20049;-91
2021/04/09 01:10:16;;;;;;;11.82;9.27;;;4.60;99.90;;;;;;5038459;28;20037;-91
2021/04/09 01:12:43;;;;;;;13.77;9.23;;;4.60;99.90;;;;;;5042082;28;20029;-89
2021/04/09 01:15:10;;;;;;;13.98;8.73;;;4.60;99.90;;;;;;5020337;28;20545;-88
2021/04/09 01:17:58;;;;;;;12.88;8.25;;;4.60;99.90;;;;;;5038767;28;20025;-90
2021/04/09 01:20:43;;;;;;;10.15;7.43;;;4.60;99.90;;;;;;5038170;28;20033;-90
2021/04/09 01:23:36;;;;;;;10.45;7.75;;;4.60;99.90;;;;;;5039711;28;20485;-90
2021/04/09 01:26:26;;;;;;;11.85;8.60;;;4.60;99.90;;;;;;5039206;28;20108;-89
2021/04/09 01:29:14;;;;;;;15.32;9.60;;;4.60;99.90;;;;;;5040151;28;20037;-90
2021/04/09 01:32:05;;;;;;;15.82;10.27;;;4.60;99.90;;;;;;5038294;28;20079;-89
2021/04/09 01:34:34;;;;;;;11.82;8.15;;;4.60;99.90;;;;;;5027370;28;20123;-90
2021/04/09 01:37:09;;;;;;;12.40;9.32;;;4.60;99.90;;;;;;5033485;28;20025;-92
2021/04/09 01:39:55;;;;;;;18.02;11.93;;;4.60;99.90;;;;;;5022472;28;20415;-90
2021/04/09 01:42:23;;;;;;;19.10;12.45;;;4.60;99.90;;;;;;5038341;28;20035;-91
2021/04/09 01:44:53;;;;;;;17.13;11.27;;;4.60;99.90;;;;;;5036990;28;20154;-90
2021/04/09 01:47:30;;;;;;;14.45;10.57;;;4.50;99.90;;;;;;5020438;28;20017;-91
2021/04/09 01:50:01;;;;;;;16.05;9.52;;;4.60;99.90;;;;;;5038990;28;20025;-91
2021/04/09 01:52:28;;;;;;;14.68;9.70;;;4.60;99.90;;;;;;5039744;28;20044;-89
2021/04/09 01:54:56;;;;;;;13.40;9.45;;;4.60;99.90;;;;;;5028947;28;20028;-91
2021/04/09 01:57:24;;;;;;;11.07;7.70;;;4.60;99.90;;;;;;5044264;28;20032;-91
2021/04/09 01:59:51;;;;;;;15.85;9.38;;;4.60;99.90;;;;;;5043421;28;20033;-92
2021/04/09 02:02:18;;;;;;;13.68;8.68;;;4.60;99.90;;;;;;5048118;28;20063;-92
2021/04/09 02:04:45;;;;;;;12.32;7.78;;;4.60;99.90;;;;;;5046362;28;20030;-91
2021/04/09 02:07:15;;;;;;;12.43;8.13;;;4.50;99.90;;;;;;5053033;28;20041;-90
2021/04/09 02:09:43;;;;;;;11.57;8.15;;;4.60;99.90;;;;;;5049300;28;20882;-91
2021/04/09 02:12:10;;;;;;;13.02;8.35;;;4.50;99.90;;;;;;5055873;28;20153;-90
2021/04/09 02:14:37;;;;;;;13.93;8.15;;;4.50;99.90;;;;;;5051075;28;20018;-91
2021/04/09 02:17:04;;;;;;;12.15;8.40;;;4.40;99.90;;;;;;5042514;28;20025;-91
2021/04/09 02:19:30;;;;;;;12.85;7.82;;;4.40;99.90;;;;;;5048802;28;20033;-91
2021/04/09 02:21:58;;;;;;;12.88;7.22;;;4.40;99.90;;;;;;5042664;28;20029;-92
2021/04/09 02:24:24;;;;;;;12.13;7.60;;;4.40;99.90;;;;;;5041171;28;20040;-91
2021/04/09 02:26:51;;;;;;;10.82;7.20;;;4.40;99.90;;;;;;5054121;28;20032;-90
2021/04/09 02:29:18;;;;;;;11.00;7.60;;;4.40;99.90;;;;;;5047290;28;20032;-91
2021/04/09 02:31:45;;;;;;;11.05;7.18;;;4.30;99.90;;;;;;5044167;28;20173;-92
2021/04/09 02:34:11;;;;;;;12.05;8.00;;;4.30;99.90;;;;;;5045590;28;20026;-92
2021/04/09 02:36:36;;;;;;;13.40;7.47;;;4.20;99.90;;;;;;5046952;28;20013;-90
2021/04/09 02:39:09;;;;;;;10.93;6.88;;;4.20;99.90;;;;;;5049992;28;20025;-91
2021/04/09 02:41:38;;;;;;;11.45;7.55;;;4.30;99.90;;;;;;5048833;28;20025;-91
2021/04/09 02:44:04;;;;;;;11.73;7.50;;;4.20;99.90;;;;;;5047584;28;20037;-92
2021/04/09 02:46:56;;;;;;;13.38;7.30;;;4.20;99.90;;;;;;5049883;28;20029;-92
2021/04/09 02:49:41;;;;;;;14.13;9.05;;;4.20;99.90;;;;;;5046306;28;20049;-92
2021/04/09 02:52:20;;;;;;;14.35;9.27;;;4.30;99.90;;;;;;5047445;28;20010;-92
2021/04/09 02:54:51;;;;;;;12.05;8.32;;;4.30;99.90;;;;;;5045467;28;20017;-92
2021/04/09 02:57:20;;;;;;;15.20;9.63;;;4.40;99.90;;;;;;5044627;28;20029;-91
2021/04/09 02:59:46;;;;;;;13.15;8.35;;;4.40;99.90;;;;;;5046158;28;20060;-91
2021/04/09 03:02:13;;;;;;;15.30;10.45;;;4.40;99.90;;;;;;5044795;28;20025;-91
2021/04/09 03:04:40;;;;;;;14.38;9.05;;;4.40;99.90;;;;;;5042994;28;20028;-91
2021/04/09 03:07:06;;;;;;;13.75;9.13;;;4.40;99.90;;;;;;5028482;28;20050;-91
2021/04/09 03:09:32;;;;;;;16.27;9.90;;;4.40;99.90;;;;;;5044543;28;20082;-92
2021/04/09 03:11:57;;;;;;;15.50;10.10;;;4.50;99.90;;;;;;5044323;28;20343;-91
2021/04/09 03:14:24;;;;;;;16.08;8.52;;;4.60;99.90;;;;;;5048073;28;20465;-92
2021/04/09 03:16:58;;;;;;;15.70;9.77;;;4.60;99.90;;;;;;5045912;28;20113;-92
2021/04/09 03:19:24;;;;;;;14.18;9.52;;;4.60;99.90;;;;;;5044257;28;20186;-91
2021/04/09 03:21:49;;;;;;;14.35;9.70;;;4.60;99.90;;;;;;5043930;28;20086;-92
2021/04/09 03:24:15;;;;;;;24.10;14.20;;;4.70;99.90;;;;;;5044674;28;20108;-91
2021/04/09 03:26:40;;;;;;;18.85;12.90;;;4.70;99.90;;;;;;5047645;28;20024;-91
2021/04/09 03:29:06;;;;;;;18.60;12.73;;;4.70;99.90;;;;;;5048811;28;20470;-91
2021/04/09 03:31:35;;;;;;;21.45;13.25;;;4.80;99.90;;;;;;5042719;28;20053;-92
2021/04/09 03:34:00;;;;;;;18.83;11.85;;;4.80;99.90;;;;;;5041949;28;20029;-92
2021/04/09 03:36:26;;;;;;;19.73;11.82;;;4.80;99.90;;;;;;5046593;28;20397;-91
2021/04/09 03:38:51;;;;;;;16.70;11.30;;;4.80;99.90;;;;;;5050367;28;20492;-91
2021/04/09 03:41:17;;;;;;;15.68;11.00;;;4.80;99.90;;;;;;5049206;28;20029;-92
2021/04/09 03:43:43;;;;;;;21.88;12.60;;;4.80;99.90;;;;;;5039708;28;20017;-92
2021/04/09 03:46:08;;;;;;;20.30;12.02;;;4.80;99.90;;;;;;5046185;28;20013;-90
2021/04/09 03:48:35;;;;;;;17.67;11.80;;;4.80;99.90;;;;;;5051433;28;20592;-91
2021/04/09 03:51:01;;;;;;;17.58;11.00;;;4.80;99.90;;;;;;5047644;28;20059;-90
2021/04/09 03:53:27;;;;;;;18.67;11.82;;;4.80;99.90;;;;;;5049408;28;20040;-91
2021/04/09 03:55:53;;;;;;;20.80;12.07;;;4.80;99.90;;;;;;5047851;28;20009;-92
2021/04/09 03:58:20;;;;;;;21.10;12.43;;;4.80;99.90;;;;;;5043872;28;20025;-93
2021/04/09 04:00:46;;;;;;;22.20;13.73;;;4.80;99.90;;;;;;5047095;28;20029;-94
2021/04/09 04:03:11;;;;;;;16.67;11.23;;;4.80;99.90;;;;;;5047871;28;20036;-90
2021/04/09 04:05:37;;;;;;;19.05;12.40;;;4.80;99.90;;;;;;5048465;28;20023;-91
2021/04/09 04:08:02;;;;;;;20.30;12.48;;;4.80;99.90;;;;;;5046210;28;20045;-91
2021/04/09 04:10:28;;;;;;;18.00;11.00;;;4.80;99.90;;;;;;5046369;28;20427;-91
2021/04/09 04:12:54;;;;;;;15.40;11.48;;;4.80;99.90;;;;;;5048959;28;20033;-91
2021/04/09 04:15:19;;;;;;;20.75;12.35;;;4.80;99.90;;;;;;5046340;28;20504;-91
2021/04/09 04:17:45;;;;;;;18.10;11.95;;;4.80;99.90;;;;;;5048721;28;20018;-91
2021/04/09 04:20:13;;;;;;;18.48;11.52;;;4.80;99.90;;;;;;5047156;28;20072;-91
2021/04/09 04:22:38;;;;;;;16.33;11.07;;;4.80;99.90;;;;;;5049100;28;20470;-90
2021/04/09 04:25:05;;;;;;;18.25;11.13;;;4.80;99.90;;;;;;5047918;28;20028;-90
2021/04/09 04:27:31;;;;;;;18.30;11.00;;;4.80;99.90;;;;;;5028114;28;20025;-90
2021/04/09 04:29:56;;;;;;;17.63;10.60;;;4.80;99.90;;;;;;5044331;28;20047;-91
2021/04/09 04:32:22;;;;;;;16.65;10.95;;;4.80;99.90;;;;;;5046042;28;20084;-92
2021/04/09 04:34:48;;;;;;;16.48;10.68;;;4.80;99.90;;;;;;5046015;28;20017;-91
2021/04/09 04:37:13;;;;;;;17.60;10.63;;;4.80;99.90;;;;;;5047223;28;20033;-90
2021/04/09 04:39:39;;;;;;;15.13;10.55;;;4.80;99.90;;;;;;5046296;28;20028;-91
2021/04/09 04:42:05;;;;;;;16.25;9.73;;;4.80;99.90;;;;;;5045675;28;20033;-92
2021/04/09 04:44:31;;;;;;;17.20;10.57;;;4.70;99.90;;;;;;5045080;28;20041;-92
2021/04/09 04:46:56;;;;;;;15.75;11.18;;;4.70;99.90;;;;;;5044458;28;20021;-90
2021/04/09 04:49:22;;;;;;;20.05;12.35;;;4.70;99.90;;;;;;5046958;28;20029;-91
2021/04/09 04:51:48;;;;;;;13.40;9.35;;;4.80;99.90;;;;;;5045683;28;20022;-91
2021/04/09 04:54:13;;;;;;;16.33;11.07;;;4.80;99.90;;;;;;5044897;28;20454;-92
2021/04/09 04:56:42;;;;;;;14.95;10.02;;;4.80;99.90;;;;;;5044557;28;20033;-92
2021/04/09 04:59:08;;;;;;;18.10;10.68;;;4.70;99.90;;;;;;5045017;28;20474;-92
2021/04/09 05:01:33;;;;;;;20.17;11.70;;;4.70;99.90;;;;;;5046779;28;20108;-92
2021/04/09 05:03:59;;;;;;;16.40;11.55;;;4.70;99.90;;;;;;5041847;28;20040;-91
2021/04/09 05:06:24;;;;;;;17.13;11.45;;;4.70;99.90;;;;;;5028653;28;20078;-91
2021/04/09 05:08:50;;;;;;;17.10;11.02;;;4.70;99.90;;;;;;5056187;28;20095;-91
2021/04/09 05:11:16;;;;;;;16.30;11.55;;;4.70;99.90;;;;;;5031251;28;20034;-90
2021/04/09 05:13:42;;;;;;;16.77;11.10;;;4.70;99.90;;;;;;5036567;28;20106;-91
2021/04/09 05:16:07;;;;;;;18.00;10.05;;;4.70;99.90;;;;;;5036658;28;20099;-91
2021/04/09 05:18:33;;;;;;;12.80;9.50;;;4.60;99.90;;;;;;5036979;28;20481;-89
2021/04/09 05:20:58;;;;;;;15.15;10.13;;;4.60;99.90;;;;;;5036756;28;20033;-91
2021/04/09 05:23:24;;;;;;;13.27;9.63;;;4.70;99.90;;;;;;5021732;28;20028;-90
2021/04/09 05:25:50;;;;;;;13.63;9.65;;;4.60;99.90;;;;;;5038907;28;20021;-91
2021/04/09 05:28:16;;;;;;;15.77;9.30;;;4.60;99.90;;;;;;5039535;28;20029;-92
2021/04/09 05:30:41;;;;;;;12.98;9.43;;;4.60;99.90;;;;;;5038816;28;20461;-92
2021/04/09 05:33:08;;;;;;;15.55;10.50;;;4.60;99.90;;;;;;5039050;28;20025;-91
2021/04/09 05:35:33;;;;;;;14.35;10.10;;;4.70;99.90;;;;;;5038648;28;20021;-91
2021/04/09 05:37:59;;;;;;;13.98;9.35;;;4.70;99.90;;;;;;5038766;28;20097;-91
2021/04/09 05:40:25;;;;;;;14.50;10.15;;;4.70;99.90;;;;;;5056328;28;20100;-91
2021/04/09 05:42:59;;;;;;;15.88;10.63;;;4.70;99.90;;;;;;5039290;28;20040;-93
2021/04/09 05:45:26;;;;;;;13.18;9.57;;;4.70;99.90;;;;;;5039060;28;20116;-92
2021/04/09 05:47:52;;;;;;;16.20;9.75;;;4.70;99.90;;;;;;5038538;28;20029;-92
2021/04/09 05:50:18;;;;;;;12.90;9.90;;;4.80;99.90;;;;;;5022484;28;20029;-93
2021/04/09 05:52:44;;;;;;;16.20;9.60;;;4.80;99.90;;;;;;5056361;28;20065;-93
2021/04/09 05:55:10;;;;;;;16.15;9.80;;;4.80;99.90;;;;;;5038527;28;20021;-92
2021/04/09 05:57:36;;;;;;;13.13;9.38;;;4.80;99.90;;;;;;5037700;28;20048;-93
2021/04/09 06:00:06;;;;;;;15.93;9.35;;;4.90;99.90;;;;;;5039155;28;20465;-93
2021/04/09 06:02:37;;;;;;;13.18;9.30;;;4.90;99.90;;;;;;5038636;28;20025;-91
2021/04/09 06:05:03;;;;;;;17.13;10.75;;;4.90;99.90;;;;;;5038279;28;20037;-91
2021/04/09 06:07:29;;;;;;;17.30;11.13;;;5.00;99.90;;;;;;5037653;28;20174;-93
2021/04/09 06:09:55;;;;;;;17.52;10.55;;;5.00;99.90;;;;;;5038809;28;20051;-92
2021/04/09 06:12:21;;;;;;;15.82;10.45;;;5.10;99.90;;;;;;5041667;28;20034;-93
2021/04/09 06:14:47;;;;;;;16.05;10.15;;;5.20;99.90;;;;;;5037930;28;20488;-92
2021/04/09 06:17:13;;;;;;;16.13;10.25;;;5.20;99.90;;;;;;5055782;28;20025;-91
2021/04/09 06:19:39;;;;;;;15.02;9.70;;;5.30;99.90;;;;;;5038292;28;20033;-92
2021/04/09 06:22:05;;;;;;;14.80;9.32;;;5.30;99.90;;;;;;5021284;28;20124;-92
2021/04/09 06:24:31;;;;;;;13.20;9.65;;;5.40;99.90;;;;;;5038173;28;20044;-93
2021/04/09 06:26:57;;;;;;;13.07;8.38;;;5.50;99.90;;;;;;5024503;28;20060;-91
2021/04/09 06:29:24;;;;;;;16.25;8.73;;;5.60;99.90;;;;;;5039450;28;20484;-92
2021/04/09 06:31:52;;;;;;;13.60;9.32;;;5.80;99.90;;;;;;5022132;28;20473;-92
2021/04/09 06:34:21;;;;;;;18.58;11.68;;;5.90;99.90;;;;;;5037088;28;20037;-91
2021/04/09 06:36:47;;;;;;;14.18;9.63;;;6.00;99.90;;;;;;5054624;28;20021;-90
2021/04/09 06:39:21;;;;;;;14.43;10.13;;;6.10;99.90;;;;;;5036685;28;20041;-91
2021/04/09 06:41:47;;;;;;;15.88;10.07;;;6.20;99.90;;;;;;5021495;28;20021;-91
2021/04/09 06:44:14;;;;;;;14.85;9.95;;;6.30;99.90;;;;;;5019668;28;20036;-91
2021/04/09 06:46:41;;;;;;;14.27;9.25;;;6.40;99.90;;;;;;5054607;28;20025;-92
2021/04/09 06:49:11;;;;;;;15.57;10.73;;;6.50;99.90;;;;;;5020523;28;20457;-91
2021/04/09 06:51:40;;;;;;;17.38;10.65;;;6.50;99.90;;;;;;5037392;28;20389;-90
2021/04/09 06:54:11;;;;;;;16.65;11.48;;;6.60;99.90;;;;;;5038452;28;20082;-92
2021/04/09 06:56:37;;;;;;;13.82;10.65;;;6.60;99.90;;;;;;5036910;28;20013;-92
2021/04/09 06:59:05;;;;;;;16.63;9.43;;;6.70;99.90;;;;;;5037127;28;20473;-91
2021/04/09 07:01:31;;;;;;;14.98;10.35;;;6.70;99.90;;;;;;5037130;28;20017;-92
2021/04/09 07:03:58;;;;;;;16.67;10.32;;;6.80;99.90;;;;;;5036806;28;20024;-91
2021/04/09 07:06:30;;;;;;;18.00;10.50;;;6.80;99.90;;;;;;5037005;28;20062;-91
2021/04/09 07:08:59;;;;;;;16.00;10.65;;;6.80;99.90;;;;;;5043277;28;20072;-92
2021/04/09 07:11:28;;;;;;;15.85;10.73;;;6.80;99.90;;;;;;5044708;28;20025;-91
2021/04/09 07:13:55;;;;;;;17.23;10.50;;;6.90;99.90;;;;;;5051200;28;20047;-91
2021/04/09 07:16:24;;;;;;;15.18;9.68;;;6.90;99.90;;;;;;5053961;28;20025;-91
2021/04/09 07:18:57;;;;;;;12.43;9.00;;;6.90;99.90;;;;;;5043941;28;20024;-91
2021/04/09 07:21:31;;;;;;;;;;;7.00;99.90;;;;;;5049984;28;20048;-92
2021/04/09 07:24:19;;;;;;;12.65;9.75;;;7.10;99.90;;;;;;5035153;28;19958;-92
2021/04/09 07:26:50;;;;;;;13.63;9.63;;;7.20;99.90;;;;;;5049964;28;20047;-91
2021/04/09 07:29:38;;;;;;;13.80;9.18;;;7.30;99.90;;;;;;5049878;28;20033;-90
2021/04/09 07:32:14;;;;;;;13.82;9.40;;;7.30;99.90;;;;;;5053355;28;20060;-93
2021/04/09 07:34:52;;;;;;;15.73;9.93;;;7.40;99.90;;;;;;5049139;28;20142;-92
2021/04/09 07:37:20;;;;;;;15.70;9.98;;;7.50;99.60;;;;;;5044593;28;20032;-93
2021/04/09 07:39:46;;;;;;;14.10;9.32;;;7.60;99.20;;;;;;5036544;28;20035;-93
2021/04/09 07:42:14;;;;;;;11.75;8.68;;;7.60;99.20;;;;;;5029273;28;20031;-93
2021/04/09 07:44:42;;;;;;;14.75;9.82;;;7.70;99.30;;;;;;5047347;28;20022;-93
2021/04/09 07:47:14;;;;;;;16.83;10.18;;;7.90;99.40;;;;;;5043306;28;20056;-91
2021/04/09 07:49:45;;;;;;;14.15;9.38;;;8.00;98.90;;;;;;5035469;28;20033;-93
2021/04/09 07:52:13;;;;;;;16.45;10.10;;;8.00;98.80;;;;;;5045376;28;20435;-93
2021/04/09 07:54:39;;;;;;;15.45;9.10;;;8.10;98.60;;;;;;5043290;28;20418;-92
2021/04/09 07:57:08;;;;;;;14.60;9.25;;;8.30;98.70;;;;;;5042827;28;20028;-92
2021/04/09 07:59:43;;;;;;;12.23;8.43;;;8.30;98.50;;;;;;5051009;28;20101;-93
2021/04/09 08:02:19;;;;;;;12.45;8.20;;;8.40;98.80;;;;;;5040420;28;20075;-92
2021/04/09 08:04:47;;;;;;;13.57;8.80;;;8.50;98.70;;;;;;5043677;28;20048;-91
2021/04/09 08:07:39;;;;;;;17.52;10.07;;;8.70;98.40;;;;;;5044455;28;20060;-93
2021/04/09 08:10:16;;;;;;;;;;;;;;;;;;;;;
2021/04/09 08:12:43;;;;;;;12.57;8.60;;;8.80;98.00;;;;;;5054018;28;20089;-91
2021/04/09 08:15:22;;;;;;;14.20;9.38;;;8.90;98.00;;;;;;5041294;28;20424;-94
2021/04/09 08:18:00;;;;;;;12.43;8.88;;;8.90;97.70;;;;;;5040938;28;20112;-92
2021/04/09 08:20:28;;;;;;;16.33;10.30;;;8.90;98.00;;;;;;5042766;28;20120;-92
2021/04/09 08:22:58;;;;;;;12.43;9.13;;;9.00;97.70;;;;;;5041446;28;20029;-93
2021/04/09 08:25:25;;;;;;;12.25;8.32;;;8.90;97.60;;;;;;5022478;28;20034;-92
2021/04/09 08:27:57;;;;;;;14.18;9.55;;;8.90;97.90;;;;;;5038880;28;20025;-92
2021/04/09 08:30:23;;;;;;;12.68;8.88;;;9.00;97.80;;;;;;5047491;28;20049;-94
2021/04/09 08:32:54;;;;;;;15.43;8.75;;;9.00;97.90;;;;;;5050766;28;20024;-95
2021/04/09 08:35:30;;;;;;;12.48;9.10;;;9.00;97.70;;;;;;5053367;28;20029;-95
2021/04/09 08:38:03;;;;;;;13.18;9.32;;;9.10;97.90;;;;;;4979579;28;20038;-93
2021/04/09 08:40:40;;;;;;;13.63;8.73;;;9.30;97.80;;;;;;4988427;28;20466;-93
2021/04/09 08:43:37;;;;;;;13.98;8.75;;;9.30;97.90;;;;;;4990654;28;20101;-92
2021/04/09 08:46:05;;;;;;;11.98;9.25;;;9.50;97.80;;;;;;4992257;28;20019;-92
2021/04/09 08:48:33;;;;;;;12.55;8.07;;;9.60;97.50;;;;;;4958479;28;20039;-94
2021/04/09 08:51:00;;;;;;;13.90;8.68;;;9.70;97.80;;;;;;4995034;28;20057;-94
2021/04/09 08:53:28;;;;;;;14.23;8.65;;;9.90;97.50;;;;;;4985651;28;20092;-93
2021/04/09 08:56:10;;;;;;;13.35;8.18;;;10.00;97.50;;;;;;5005745;28;20033;-91
2021/04/09 08:58:46;;;;;;;13.85;8.95;;;10.20;97.10;;;;;;4990916;28;20026;-92
2021/04/09 09:01:19;;;;;;;14.20;9.55;;;10.30;96.60;;;;;;4982972;28;20105;-94
2021/04/09 09:03:45;;;;;;;12.32;9.27;;;10.30;96.40;;;;;;4996133;28;20112;-92
2021/04/09 09:06:13;;;;;;;12.15;8.45;;;10.40;96.10;;;;;;5000774;28;20033;-91
2021/04/09 09:08:50;;;;;;;10.13;7.93;;;10.40;96.00;;;;;;5005978;28;20030;-92
2021/04/09 09:11:49;;;;;;;12.75;8.73;;;10.50;96.00;;;;;;5019466;28;20022;-93
2021/04/09 09:14:33;;;;;;;12.00;8.25;;;10.60;95.80;;;;;;4994379;28;20090;-92
2021/04/09 09:17:22;;;;;;;12.55;8.07;;;10.60;95.60;;;;;;5039570;28;20028;-91
2021/04/09 09:20:10;;;;;;;11.95;8.65;;;10.60;95.80;;;;;;5045767;28;20488;-92
2021/04/09 09:23:22;;;;;;;;;;;;;;;;;;;;;
2021/04/09 09:26:37;;;;;;;;;;;;;;;;;;;;;
2021/04/09 09:29:25;;;;;;;12.23;9.00;;;10.70;95.40;;;;;;5054587;28;20108;-92
2021/04/09 09:32:21;;;;;;;13.02;8.30;;;10.90;95.10;;;;;;5046408;28;20080;-93
2021/04/09 09:38:08;;;;;;;12.73;8.57;;;11.30;95.30;;;;;;5049508;28;20061;-93
2021/04/09 09:40:42;;;;;;;11.77;7.47;;;11.50;94.70;;;;;;5043239;28;20029;-92
2021/04/09 09:44:05;;;;;;;12.13;8.25;;;11.60;94.90;;;;;;5035633;28;20837;-94
2021/04/09 09:47:02;;;;;;;9.45;7.00;;;12.10;94.50;;;;;;5033086;28;20028;-94
2021/04/09 09:50:00;;;;;;;11.30;6.20;;;13.00;93.40;;;;;;5046644;28;20017;-93
2021/04/09 09:52:51;;;;;;;12.77;5.65;;;13.80;91.70;;;;;;5049001;28;20036;-94
2021/04/09 09:55:50;;;;;;;;;;;;;;;;;;;;;
2021/04/09 09:58:30;;;;;;;7.85;4.90;;;15.30;85.30;;;;;;5034961;28;20109;-95
2021/04/09 10:01:33;;;;;;;;;;;;;;;;;;;;;
2021/04/09 10:04:00;;;;;;;10.88;5.10;;;16.10;85.40;;;;;;5058024;28;20123;-94
2021/04/09 10:06:32;;;;;;;6.75;3.63;;;16.40;81.60;;;;;;5054179;28;20469;-95
2021/04/09 10:09:12;;;;;;;8.70;4.30;;;16.40;82.90;;;;;;5054529;28;20123;-93
2021/04/09 10:11:45;;;;;;;6.18;4.00;;;16.70;82.90;;;;;;5057473;28;20116;-94
2021/04/09 10:14:10;;;;;;;8.27;4.70;;;17.00;80.50;;;;;;5038889;28;20032;-93
2021/04/09 10:16:36;;;;;;;9.68;4.63;;;17.20;79.00;;;;;;5055383;28;20358;-95
2021/04/09 10:19:09;;;;;;;6.57;4.40;;;17.00;79.40;;;;;;5054078;28;20021;-94
2021/04/09 10:21:39;;;;;;;6.15;3.90;;;17.00;77.20;;;;;;5053224;28;20183;-93
2021/04/09 10:24:08;;;;;;;6.50;4.40;;;17.10;78.20;;;;;;5036140;28;20095;-95
2021/04/09 10:26:39;;;;;;;7.07;4.28;;;17.30;76.70;;;;;;5042578;28;20093;-94
2021/04/09 10:29:23;;;;;;;6.88;4.50;;;17.30;76.60;;;;;;5046413;28;20116;-94
2021/04/09 10:31:52;;;;;;;7.82;4.85;;;17.00;75.80;;;;;;5037043;28;20042;-95
2021/04/09 10:34:26;;;;;;;6.90;4.30;;;16.60;76.40;;;;;;5038117;28;20078;-93
2021/04/09 10:36:57;;;;;;;10.73;4.68;;;16.50;78.00;;;;;;5055426;28;20032;-94
2021/04/09 10:39:27;;;;;;;6.65;4.32;;;16.50;76.40;;;;;;5045183;28;20152;-92
2021/04/09 10:41:56;;;;;;;7.70;4.22;;;16.30;75.10;;;;;;5054084;28;20082;-93
2021/04/09 10:44:37;;;;;;;7.70;4.38;;;16.20;77.70;;;;;;5053502;28;20052;-94
2021/04/09 10:47:07;;;;;;;6.43;4.45;;;16.10;77.80;;;;;;5054927;28;20037;-94
2021/04/09 10:49:52;;;;;;;;;;;;;;;;;;;;;
2021/04/09 10:52:37;;;;;;;6.57;3.95;;;16.60;78.90;;;;;;5055218;28;20027;-92
2021/04/09 10:55:26;;;;;;;5.07;3.60;;;16.40;77.20;;;;;;5054109;28;20025;-92
2021/04/09 10:58:03;;;;;;;6.78;3.70;;;16.70;76.30;;;;;;5053556;28;20040;-93
2021/04/09 11:04:01;;;;;;;;;;;;;;;;;;;;;
2021/04/09 11:06:46;;;;;;;;;;;;;;;;;;;;;
2021/04/09 11:09:41;;;;;;;6.53;2.92;;;17.50;73.70;;;;;;5061501;28;20128;-92
2021/04/09 11:13:04;;;;;;;4.68;2.58;;;17.10;75.00;;;;;;5064572;28;20031;-94
2021/04/09 11:16:25;;;;;;;;;;;;;;;;;;;;;
2021/04/09 11:19:53;;;;;;;;;;;;;;;;;;;;;
2021/04/09 11:22:47;;;;;;;;;;;;;;;;;;;;;
2021/04/09 11:25:15;;;;;;;6.40;2.20;;;16.40;78.90;;;;;;5059762;28;19979;-92
2021/04/09 11:27:45;;;;;;;4.30;2.42;;;16.20;74.30;;;;;;5059542;28;20084;-91
2021/04/09 11:30:21;;;;;;;2.92;1.90;;;16.00;74.50;;;;;;5060938;28;20031;-91
2021/04/09 11:33:01;;;;;;;5.40;2.20;;;16.10;76.30;;;;;;5064164;28;20014;-94
2021/04/09 11:35:34;;;;;;;4.78;2.00;;;16.50;76.30;;;;;;5061057;28;20072;-90
2021/04/09 11:38:33;;;;;;;4.20;2.00;;;17.00;75.60;;;;;;5060031;28;20028;-93
2021/04/09 11:41:09;;;;;;;6.20;1.88;;;17.30;75.40;;;;;;5037059;28;20083;-93
2021/04/09 11:43:43;;;;;;;5.60;2.30;;;17.80;75.20;;;;;;5035697;28;20492;-92
2021/04/09 11:46:42;;;;;;;5.03;2.17;;;18.30;74.20;;;;;;5043571;28;20017;-91
2021/04/09 11:49:12;;;;;;;4.03;2.20;;;18.40;70.20;;;;;;5053863;28;20116;-93
2021/04/09 11:51:38;;;;;;;3.20;2.00;;;18.20;70.60;;;;;;5053222;28;20032;-93
2021/04/09 11:54:16;;;;;;;;;;;;;;;;;;;;;
2021/04/09 11:57:23;;;;;;;4.00;1.80;;;17.80;70.40;;;;;;5053829;28;20025;-93
2021/04/09 12:00:03;;;;;;;;;;;;;;;;;;;;;
2021/04/09 12:03:04;;;;;;;;;;;;;;;;;;;;;
2021/04/09 12:05:35;;;;;;;4.05;2.10;;;15.90;73.30;;;;;;5023939;28;20131;-92
2021/04/09 12:08:10;;;;;;;3.40;2.08;;;15.80;73.60;;;;;;5034436;28;20049;-93
2021/04/09 12:11:24;;;;;;;2.75;1.55;;;16.30;74.90;;;;;;5038310;28;20100;-93
2021/04/09 12:14:00;;;;;;;3.10;1.85;;;17.10;73.90;;;;;;5018973;28;20397;-93
2021/04/09 12:16:43;;;;;;;3.67;2.13;;;17.40;72.40;;;;;;5038160;28;20022;-93
2021/04/09 12:19:23;;;;;;;3.67;2.25;;;17.70;71.60;;;;;;5016618;28;20077;-92
2021/04/09 12:22:06;;;;;;;3.50;1.90;;;17.70;71.20;;;;;;4999121;28;20030;-89
2021/04/09 12:25:06;;;;;;;;;;;;;;;;;;;;;
2021/04/09 12:28:28;;;;;;;6.30;2.42;;;17.80;71.20;;;;;;5051597;28;20029;-94
2021/04/09 12:30:54;;;;;;;4.03;1.80;;;17.80;67.90;;;;;;5007747;28;20055;-92
2021/04/09 12:33:23;;;;;;;4.30;1.80;;;17.30;70.20;;;;;;5027609;28;20049;-92
2021/04/09 12:38:47;;;;;;;4.78;2.08;;;17.70;70.00;;;;;;5031809;28;20855;-93
2021/04/09 12:44:56;;;;;;;4.25;1.80;;;17.10;71.40;;;;;;4985232;28;20088;-93
2021/04/09 12:47:36;;;;;;;2.80;1.42;;;17.70;70.00;;;;;;5028031;28;20478;-91
2021/04/09 12:50:11;;;;;;;2.10;1.50;;;17.90;68.70;;;;;;4981729;28;20034;-91
2021/04/09 12:52:42;;;;;;;3.70;2.08;;;17.60;68.70;;;;;;5035878;28;20033;-92
2021/04/09 12:55:52;;;;;;;;;;;;;;;;;;;;;
2021/04/09 12:58:14;;;;;;;2.42;1.70;;;18.30;69.20;;;;;;5032174;28;20393;-93
2021/04/09 13:00:46;;;;;;;5.85;1.80;;;18.40;67.80;;;;;;5037020;28;20008;-92
2021/04/09 13:03:22;;;;;;;4.20;1.98;;;17.90;68.90;;;;;;5039359;28;20036;-92
2021/04/09 13:05:58;;;;;;;4.25;2.13;;;17.20;70.20;;;;;;5021334;28;20087;-91
2021/04/09 13:08:25;;;;;;;3.60;1.85;;;17.40;71.60;;;;;;5025574;28;20053;-92
2021/04/09 13:10:51;;;;;;;4.28;2.13;;;17.30;71.30;;;;;;5024245;28;20442;-92
2021/04/09 13:13:23;;;;;;;3.00;2.10;;;17.00;72.20;;;;;;5025859;28;20038;-92
2021/04/09 13:15:49;;;;;;;6.15;2.17;;;16.80;70.70;;;;;;5032056;28;20477;-92
2021/04/09 13:18:17;;;;;;;3.40;2.03;;;16.60;73.00;;;;;;5031630;28;20033;-93
2021/04/09 13:20:48;;;;;;;3.88;2.17;;;16.40;72.60;;;;;;5032721;28;20029;-93
2021/04/09 13:23:24;;;;;;;3.53;1.95;;;16.20;73.00;;;;;;5024914;28;20065;-92
2021/04/09 13:26:00;;;;;;;6.97;2.15;;;16.20;73.60;;;;;;5033060;28;20089;-92
2021/04/09 13:28:38;;;;;;;3.20;1.95;;;16.00;71.80;;;;;;5034214;28;20021;-93
2021/04/09 13:31:07;;;;;;;3.08;1.65;;;15.80;72.00;;;;;;5032674;28;20116;-92
2021/04/09 13:33:51;;;;;;;;;;;;;;;;;;;;;
2021/04/09 13:36:22;;;;;;;5.07;1.92;;;16.70;69.90;;;;;;5019468;28;20505;-92
2021/04/09 13:38:52;;;;;;;2.42;1.50;;;16.70;68.60;;;;;;5023002;28;20061;-92
2021/04/09 13:41:20;;;;;;;4.57;2.00;;;16.60;70.20;;;;;;5027715;28;20117;-92
2021/04/09 13:43:52;;;;;;;6.22;1.95;;;16.30;70.70;;;;;;5014609;28;20042;-92
2021/04/09 13:46:22;;;;;;;3.45;1.58;;;15.90;71.30;;;;;;5018790;28;20041;-92